sensor_id;sensor_type;location;lat;lon;timestamp;temperature;humidity
44607;DHT22;30315;46.072;14.474;2022-11-02T00:02:22;18.60;70.20
44607;DHT22;30315;46.072;14.474;2022-11-02T00:05:19;18.60;70.00
44607;DHT22;30315;46.072;14.474;2022-11-02T00:07:53;18.60;70.10
44607;DHT22;30315;46.072;14.474;2022-11-02T00:10:21;18.50;69.90
44607;DHT22;30315;46.072;14.474;2022-11-02T00:12:48;18.60;70.00
44607;DHT22;30315;46.072;14.474;2022-11-02T00:15:15;18.10;69.60
44607;DHT22;30315;46.072;14.474;2022-11-02T00:17:49;18.60;70.30
44607;DHT22;30315;46.072;14.474;2022-11-02T00:20:17;18.60;70.40
44607;DHT22;30315;46.072;14.474;2022-11-02T00:22:44;18.60;70.50
44607;DHT22;30315;46.072;14.474;2022-11-02T00:25:13;18.60;70.60
44607;DHT22;30315;46.072;14.474;2022-11-02T00:27:40;18.60;70.80
44607;DHT22;30315;46.072;14.474;2022-11-02T00:30:11;18.60;71.80
44607;DHT22;30315;46.072;14.474;2022-11-02T00:32:55;18.60;71.10
44607;DHT22;30315;46.072;14.474;2022-11-02T00:35:25;18.60;71.20
44607;DHT22;30315;46.072;14.474;2022-11-02T00:37:54;18.60;71.30
44607;DHT22;30315;46.072;14.474;2022-11-02T00:40:21;18.60;71.20
44607;DHT22;30315;46.072;14.474;2022-11-02T00:42:48;18.60;71.10
44607;DHT22;30315;46.072;14.474;2022-11-02T00:45:15;18.60;71.40
44607;DHT22;30315;46.072;14.474;2022-11-02T00:47:42;18.50;71.40
44607;DHT22;30315;46.072;14.474;2022-11-02T00:50:09;18.60;71.70
44607;DHT22;30315;46.072;14.474;2022-11-02T00:52:38;18.50;71.60
44607;DHT22;30315;46.072;14.474;2022-11-02T00:55:06;18.50;71.30
44607;DHT22;30315;46.072;14.474;2022-11-02T00:57:36;18.60;71.30
44607;DHT22;30315;46.072;14.474;2022-11-02T01:00:03;18.50;71.30
44607;DHT22;30315;46.072;14.474;2022-11-02T01:02:33;18.60;71.50
44607;DHT22;30315;46.072;14.474;2022-11-02T01:05:01;18.60;71.50
44607;DHT22;30315;46.072;14.474;2022-11-02T01:07:28;18.60;71.60
44607;DHT22;30315;46.072;14.474;2022-11-02T01:09:55;18.70;71.60
44607;DHT22;30315;46.072;14.474;2022-11-02T01:12:21;18.70;71.60
44607;DHT22;30315;46.072;14.474;2022-11-02T01:14:48;18.70;71.50
44607;DHT22;30315;46.072;14.474;2022-11-02T01:17:16;18.70;71.40
44607;DHT22;30315;46.072;14.474;2022-11-02T01:19:43;18.70;71.40
44607;DHT22;30315;46.072;14.474;2022-11-02T01:22:09;18.70;71.30
44607;DHT22;30315;46.072;14.474;2022-11-02T01:24:37;18.70;71.30
44607;DHT22;30315;46.072;14.474;2022-11-02T01:27:04;18.60;71.10
44607;DHT22;30315;46.072;14.474;2022-11-02T01:29:31;18.60;71.30
44607;DHT22;30315;46.072;14.474;2022-11-02T01:31:57;18.50;71.10
44607;DHT22;30315;46.072;14.474;2022-11-02T01:34:24;18.50;71.10
44607;DHT22;30315;46.072;14.474;2022-11-02T01:36:51;18.50;71.30
44607;DHT22;30315;46.072;14.474;2022-11-02T01:39:18;18.50;71.50
44607;DHT22;30315;46.072;14.474;2022-11-02T01:41:49;18.50;71.60
44607;DHT22;30315;46.072;14.474;2022-11-02T01:44:34;18.40;71.80
44607;DHT22;30315;46.072;14.474;2022-11-02T01:47:05;18.40;71.90
44607;DHT22;30315;46.072;14.474;2022-11-02T01:49:35;18.40;72.10
44607;DHT22;30315;46.072;14.474;2022-11-02T01:52:07;18.40;72.20
44607;DHT22;30315;46.072;14.474;2022-11-02T01:54:40;18.40;72.30
44607;DHT22;30315;46.072;14.474;2022-11-02T01:57:09;18.40;72.40
44607;DHT22;30315;46.072;14.474;2022-11-02T01:59:41;18.30;72.30
44607;DHT22;30315;46.072;14.474;2022-11-02T02:02:12;18.30;72.50
44607;DHT22;30315;46.072;14.474;2022-11-02T02:04:40;18.30;72.60
44607;DHT22;30315;46.072;14.474;2022-11-02T02:07:08;18.20;72.60
44607;DHT22;30315;46.072;14.474;2022-11-02T02:09:36;18.20;72.70
44607;DHT22;30315;46.072;14.474;2022-11-02T02:12:03;18.20;72.80
44607;DHT22;30315;46.072;14.474;2022-11-02T02:17:25;18.20;73.00
44607;DHT22;30315;46.072;14.474;2022-11-02T02:25:24;18.10;73.20
44607;DHT22;30315;46.072;14.474;2022-11-02T02:30:42;18.00;73.00
44607;DHT22;30315;46.072;14.474;2022-11-02T02:33:13;18.10;73.10
44607;DHT22;30315;46.072;14.474;2022-11-02T02:35:44;18.00;73.20
44607;DHT22;30315;46.072;14.474;2022-11-02T02:41:22;18.00;73.00
44607;DHT22;30315;46.072;14.474;2022-11-02T02:43:46;18.00;73.10
44607;DHT22;30315;46.072;14.474;2022-11-02T02:46:18;17.90;72.90
44607;DHT22;30315;46.072;14.474;2022-11-02T02:48:46;17.90;73.60
44607;DHT22;30315;46.072;14.474;2022-11-02T02:51:15;17.80;72.80
44607;DHT22;30315;46.072;14.474;2022-11-02T02:53:45;17.80;72.80
44607;DHT22;30315;46.072;14.474;2022-11-02T02:56:16;17.70;72.90
44607;DHT22;30315;46.072;14.474;2022-11-02T03:01:12;17.50;73.20
44607;DHT22;30315;46.072;14.474;2022-11-02T03:03:40;17.50;73.40
44607;DHT22;30315;46.072;14.474;2022-11-02T03:08:37;17.40;73.40
44607;DHT22;30315;46.072;14.474;2022-11-02T03:18:54;17.20;73.70
44607;DHT22;30315;46.072;14.474;2022-11-02T03:21:29;17.10;73.70
44607;DHT22;30315;46.072;14.474;2022-11-02T03:27:05;17.10;73.70
44607;DHT22;30315;46.072;14.474;2022-11-02T03:32:05;16.90;73.90
44607;DHT22;30315;46.072;14.474;2022-11-02T03:34:41;16.90;74.00
44607;DHT22;30315;46.072;14.474;2022-11-02T03:39:37;16.80;74.30
44607;DHT22;30315;46.072;14.474;2022-11-02T03:42:06;16.80;74.50
44607;DHT22;30315;46.072;14.474;2022-11-02T03:44:36;16.80;74.80
44607;DHT22;30315;46.072;14.474;2022-11-02T03:47:05;16.80;75.10
44607;DHT22;30315;46.072;14.474;2022-11-02T03:49:34;16.80;75.40
44607;DHT22;30315;46.072;14.474;2022-11-02T03:52:02;16.80;75.50
44607;DHT22;30315;46.072;14.474;2022-11-02T03:57:17;16.80;76.10
44607;DHT22;30315;46.072;14.474;2022-11-02T03:59:46;16.80;76.00
44607;DHT22;30315;46.072;14.474;2022-11-02T04:02:13;16.80;75.60
44607;DHT22;30315;46.072;14.474;2022-11-02T04:04:51;16.90;75.50
44607;DHT22;30315;46.072;14.474;2022-11-02T04:07:23;16.80;75.00
44607;DHT22;30315;46.072;14.474;2022-11-02T04:09:52;16.80;74.70
44607;DHT22;30315;46.072;14.474;2022-11-02T04:12:19;16.70;74.50
44607;DHT22;30315;46.072;14.474;2022-11-02T04:15:06;16.70;74.60
44607;DHT22;30315;46.072;14.474;2022-11-02T04:17:33;16.70;74.70
44607;DHT22;30315;46.072;14.474;2022-11-02T04:20:19;16.70;74.80
44607;DHT22;30315;46.072;14.474;2022-11-02T04:22:46;16.50;74.80
44607;DHT22;30315;46.072;14.474;2022-11-02T04:25:32;16.50;75.00
44607;DHT22;30315;46.072;14.474;2022-11-02T04:28:05;16.40;75.10
44607;DHT22;30315;46.072;14.474;2022-11-02T04:30:34;16.50;75.30
44607;DHT22;30315;46.072;14.474;2022-11-02T04:33:01;16.40;75.30
44607;DHT22;30315;46.072;14.474;2022-11-02T04:35:52;16.40;75.50
44607;DHT22;30315;46.072;14.474;2022-11-02T04:38:20;16.30;75.50
44607;DHT22;30315;46.072;14.474;2022-11-02T04:41:20;16.30;75.40
44607;DHT22;30315;46.072;14.474;2022-11-02T04:44:10;16.30;75.50
44607;DHT22;30315;46.072;14.474;2022-11-02T04:46:38;16.20;75.30
44607;DHT22;30315;46.072;14.474;2022-11-02T04:49:07;16.20;75.30
44607;DHT22;30315;46.072;14.474;2022-11-02T04:51:35;16.20;75.30
44607;DHT22;30315;46.072;14.474;2022-11-02T04:54:02;16.20;75.30
44607;DHT22;30315;46.072;14.474;2022-11-02T04:56:30;16.10;75.10
44607;DHT22;30315;46.072;14.474;2022-11-02T04:58:58;16.00;76.00
44607;DHT22;30315;46.072;14.474;2022-11-02T05:01:27;16.00;75.40
44607;DHT22;30315;46.072;14.474;2022-11-02T05:03:56;16.00;75.50
44607;DHT22;30315;46.072;14.474;2022-11-02T05:06:25;15.90;75.50
44607;DHT22;30315;46.072;14.474;2022-11-02T05:08:54;15.90;75.60
44607;DHT22;30315;46.072;14.474;2022-11-02T05:11:22;15.90;75.80
44607;DHT22;30315;46.072;14.474;2022-11-02T05:13:49;15.90;75.90
44607;DHT22;30315;46.072;14.474;2022-11-02T05:16:17;15.80;75.90
44607;DHT22;30315;46.072;14.474;2022-11-02T05:19:02;15.80;75.90
44607;DHT22;30315;46.072;14.474;2022-11-02T05:21:36;15.80;76.10
44607;DHT22;30315;46.072;14.474;2022-11-02T05:24:03;15.90;76.20
44607;DHT22;30315;46.072;14.474;2022-11-02T05:26:31;15.80;76.00
44607;DHT22;30315;46.072;14.474;2022-11-02T05:28:57;15.80;76.00
44607;DHT22;30315;46.072;14.474;2022-11-02T05:31:25;15.80;75.90
44607;DHT22;30315;46.072;14.474;2022-11-02T05:33:51;15.80;75.90
44607;DHT22;30315;46.072;14.474;2022-11-02T05:36:21;15.70;75.80
44607;DHT22;30315;46.072;14.474;2022-11-02T05:38:53;15.70;75.90
44607;DHT22;30315;46.072;14.474;2022-11-02T05:41:21;15.60;75.80
44607;DHT22;30315;46.072;14.474;2022-11-02T05:43:49;15.70;75.90
44607;DHT22;30315;46.072;14.474;2022-11-02T05:46:18;15.70;75.70
44607;DHT22;30315;46.072;14.474;2022-11-02T05:48:45;15.60;75.60
44607;DHT22;30315;46.072;14.474;2022-11-02T05:51:12;15.60;75.70
44607;DHT22;30315;46.072;14.474;2022-11-02T05:53:39;15.50;75.60
44607;DHT22;30315;46.072;14.474;2022-11-02T05:56:06;15.50;75.70
44607;DHT22;30315;46.072;14.474;2022-11-02T05:58:33;15.50;75.80
44607;DHT22;30315;46.072;14.474;2022-11-02T06:01:00;15.50;75.80
44607;DHT22;30315;46.072;14.474;2022-11-02T06:03:28;15.50;75.90
44607;DHT22;30315;46.072;14.474;2022-11-02T06:05:56;15.40;75.90
44607;DHT22;30315;46.072;14.474;2022-11-02T06:08:23;15.40;76.10
44607;DHT22;30315;46.072;14.474;2022-11-02T06:10:50;15.40;76.10
44607;DHT22;30315;46.072;14.474;2022-11-02T06:13:16;15.40;76.30
44607;DHT22;30315;46.072;14.474;2022-11-02T06:15:43;15.40;76.30
44607;DHT22;30315;46.072;14.474;2022-11-02T06:18:10;15.40;76.30
44607;DHT22;30315;46.072;14.474;2022-11-02T06:20:37;15.40;76.30
44607;DHT22;30315;46.072;14.474;2022-11-02T06:23:04;15.50;76.50
44607;DHT22;30315;46.072;14.474;2022-11-02T06:25:31;15.50;76.40
44607;DHT22;30315;46.072;14.474;2022-11-02T06:27:57;15.40;76.40
44607;DHT22;30315;46.072;14.474;2022-11-02T06:30:31;15.50;76.50
44607;DHT22;30315;46.072;14.474;2022-11-02T06:32:58;15.50;76.50
44607;DHT22;30315;46.072;14.474;2022-11-02T06:35:32;15.50;76.60
44607;DHT22;30315;46.072;14.474;2022-11-02T06:37:59;15.50;76.70
44607;DHT22;30315;46.072;14.474;2022-11-02T06:40:25;15.50;77.90
44607;DHT22;30315;46.072;14.474;2022-11-02T06:42:54;15.60;79.40
44607;DHT22;30315;46.072;14.474;2022-11-02T06:45:41;15.70;79.70
44607;DHT22;30315;46.072;14.474;2022-11-02T06:48:08;15.80;79.70
44607;DHT22;30315;46.072;14.474;2022-11-02T06:50:35;15.80;79.50
44607;DHT22;30315;46.072;14.474;2022-11-02T06:53:02;15.80;78.30
44607;DHT22;30315;46.072;14.474;2022-11-02T06:55:29;15.80;77.90
44607;DHT22;30315;46.072;14.474;2022-11-02T06:57:56;15.80;77.60
44607;DHT22;30315;46.072;14.474;2022-11-02T07:00:23;15.80;77.50
44607;DHT22;30315;46.072;14.474;2022-11-02T07:03:02;15.90;77.50
44607;DHT22;30315;46.072;14.474;2022-11-02T07:05:32;15.90;77.40
44607;DHT22;30315;46.072;14.474;2022-11-02T07:07:59;15.90;77.50
44607;DHT22;30315;46.072;14.474;2022-11-02T07:10:26;15.90;77.40
44607;DHT22;30315;46.072;14.474;2022-11-02T07:12:54;15.90;77.20
44607;DHT22;30315;46.072;14.474;2022-11-02T07:15:22;16.00;77.40
44607;DHT22;30315;46.072;14.474;2022-11-02T07:17:49;16.00;77.30
44607;DHT22;30315;46.072;14.474;2022-11-02T07:20:17;16.00;77.40
44607;DHT22;30315;46.072;14.474;2022-11-02T07:22:51;16.10;77.50
44607;DHT22;30315;46.072;14.474;2022-11-02T07:25:18;16.10;77.40
44607;DHT22;30315;46.072;14.474;2022-11-02T07:27:45;16.10;77.30
44607;DHT22;30315;46.072;14.474;2022-11-02T07:30:12;15.70;76.70
44607;DHT22;30315;46.072;14.474;2022-11-02T07:32:42;16.20;77.20
44607;DHT22;30315;46.072;14.474;2022-11-02T07:35:10;16.20;77.20
44607;DHT22;30315;46.072;14.474;2022-11-02T07:37:38;16.30;77.40
44607;DHT22;30315;46.072;14.474;2022-11-02T07:40:05;16.30;77.50
44607;DHT22;30315;46.072;14.474;2022-11-02T07:42:32;16.30;77.50
44607;DHT22;30315;46.072;14.474;2022-11-02T07:45:02;16.40;77.70
44607;DHT22;30315;46.072;14.474;2022-11-02T07:47:29;16.40;77.80
44607;DHT22;30315;46.072;14.474;2022-11-02T07:49:56;16.40;77.90
44607;DHT22;30315;46.072;14.474;2022-11-02T07:52:25;16.50;78.20
44607;DHT22;30315;46.072;14.474;2022-11-02T07:54:51;16.60;78.30
44607;DHT22;30315;46.072;14.474;2022-11-02T07:57:18;16.60;78.30
44607;DHT22;30315;46.072;14.474;2022-11-02T07:59:45;16.70;78.60
44607;DHT22;30315;46.072;14.474;2022-11-02T08:02:12;16.70;78.50
44607;DHT22;30315;46.072;14.474;2022-11-02T08:04:39;16.80;78.70
44607;DHT22;30315;46.072;14.474;2022-11-02T08:07:10;16.80;78.50
44607;DHT22;30315;46.072;14.474;2022-11-02T08:09:38;16.90;78.50
44607;DHT22;30315;46.072;14.474;2022-11-02T08:12:05;16.90;78.40
44607;DHT22;30315;46.072;14.474;2022-11-02T08:14:33;16.90;78.20
44607;DHT22;30315;46.072;14.474;2022-11-02T08:17:00;17.00;78.30
44607;DHT22;30315;46.072;14.474;2022-11-02T08:19:27;17.00;78.20
44607;DHT22;30315;46.072;14.474;2022-11-02T08:21:54;17.10;78.10
44607;DHT22;30315;46.072;14.474;2022-11-02T08:24:21;17.10;77.90
44607;DHT22;30315;46.072;14.474;2022-11-02T08:26:48;17.10;77.60
44607;DHT22;30315;46.072;14.474;2022-11-02T08:29:20;17.20;77.60
44607;DHT22;30315;46.072;14.474;2022-11-02T08:31:47;17.30;77.60
44607;DHT22;30315;46.072;14.474;2022-11-02T08:34:14;17.40;77.70
44607;DHT22;30315;46.072;14.474;2022-11-02T08:36:40;17.40;77.30
44607;DHT22;30315;46.072;14.474;2022-11-02T08:39:07;17.40;76.80
44607;DHT22;30315;46.072;14.474;2022-11-02T08:41:34;17.50;76.80
44607;DHT22;30315;46.072;14.474;2022-11-02T08:44:01;17.50;76.70
44607;DHT22;30315;46.072;14.474;2022-11-02T08:46:28;17.60;76.80
44607;DHT22;30315;46.072;14.474;2022-11-02T08:48:55;17.60;76.60
44607;DHT22;30315;46.072;14.474;2022-11-02T08:51:22;17.70;76.50
44607;DHT22;30315;46.072;14.474;2022-11-02T08:53:49;17.80;76.30
44607;DHT22;30315;46.072;14.474;2022-11-02T08:56:17;17.70;75.80
44607;DHT22;30315;46.072;14.474;2022-11-02T08:58:44;17.90;75.60
44607;DHT22;30315;46.072;14.474;2022-11-02T09:01:11;17.90;75.20
44607;DHT22;30315;46.072;14.474;2022-11-02T09:03:38;17.90;74.90
44607;DHT22;30315;46.072;14.474;2022-11-02T09:06:05;18.00;74.70
44607;DHT22;30315;46.072;14.474;2022-11-02T09:08:32;18.00;74.50
44607;DHT22;30315;46.072;14.474;2022-11-02T09:11:00;18.10;74.20
44607;DHT22;30315;46.072;14.474;2022-11-02T09:13:27;18.10;73.90
44607;DHT22;30315;46.072;14.474;2022-11-02T09:15:55;18.10;73.80
44607;DHT22;30315;46.072;14.474;2022-11-02T09:18:25;18.20;73.70
44607;DHT22;30315;46.072;14.474;2022-11-02T09:20:52;18.70;74.00
44607;DHT22;30315;46.072;14.474;2022-11-02T09:23:24;18.30;73.20
44607;DHT22;30315;46.072;14.474;2022-11-02T09:25:53;18.10;73.10
44607;DHT22;30315;46.072;14.474;2022-11-02T09:28:24;18.40;73.50
44607;DHT22;30315;46.072;14.474;2022-11-02T09:30:52;18.50;73.60
44607;DHT22;30315;46.072;14.474;2022-11-02T09:33:19;18.50;73.60
44607;DHT22;30315;46.072;14.474;2022-11-02T09:35:48;18.40;73.10
44607;DHT22;30315;46.072;14.474;2022-11-02T09:38:17;18.70;73.40
44607;DHT22;30315;46.072;14.474;2022-11-02T09:46:05;18.70;72.80
44607;DHT22;30315;46.072;14.474;2022-11-02T09:48:34;18.80;72.70
44607;DHT22;30315;46.072;14.474;2022-11-02T09:51:03;18.80;72.80
44607;DHT22;30315;46.072;14.474;2022-11-02T09:53:54;18.90;72.90
44607;DHT22;30315;46.072;14.474;2022-11-02T09:56:22;19.00;73.10
44607;DHT22;30315;46.072;14.474;2022-11-02T09:58:54;19.00;73.10
44607;DHT22;30315;46.072;14.474;2022-11-02T10:01:27;19.10;73.20
44607;DHT22;30315;46.072;14.474;2022-11-02T10:04:10;19.20;72.70
44607;DHT22;30315;46.072;14.474;2022-11-02T10:06:41;19.20;72.50
44607;DHT22;30315;46.072;14.474;2022-11-02T10:09:18;19.30;72.40
44607;DHT22;30315;46.072;14.474;2022-11-02T10:11:57;19.30;72.30
44607;DHT22;30315;46.072;14.474;2022-11-02T10:17:03;19.50;72.30
44607;DHT22;30315;46.072;14.474;2022-11-02T10:19:39;19.50;72.10
44607;DHT22;30315;46.072;14.474;2022-11-02T10:22:09;19.40;71.80
44607;DHT22;30315;46.072;14.474;2022-11-02T10:24:38;19.60;71.70
44607;DHT22;30315;46.072;14.474;2022-11-02T10:27:14;19.70;71.40
44607;DHT22;30315;46.072;14.474;2022-11-02T10:32:09;19.80;71.10
44607;DHT22;30315;46.072;14.474;2022-11-02T10:34:36;19.80;70.90
44607;DHT22;30315;46.072;14.474;2022-11-02T10:44:46;20.00;71.10
44607;DHT22;30315;46.072;14.474;2022-11-02T10:47:17;19.70;70.50
44607;DHT22;30315;46.072;14.474;2022-11-02T10:52:38;20.20;69.80
44607;DHT22;30315;46.072;14.474;2022-11-02T10:55:07;20.30;69.90
44607;DHT22;30315;46.072;14.474;2022-11-02T10:57:36;20.30;69.10
44607;DHT22;30315;46.072;14.474;2022-11-02T11:05:49;20.50;68.80
44607;DHT22;30315;46.072;14.474;2022-11-02T11:08:26;20.50;68.70
44607;DHT22;30315;46.072;14.474;2022-11-02T11:10:54;20.60;68.40
44607;DHT22;30315;46.072;14.474;2022-11-02T11:13:22;20.70;68.10
44607;DHT22;30315;46.072;14.474;2022-11-02T11:16:09;20.80;67.80
44607;DHT22;30315;46.072;14.474;2022-11-02T11:18:43;20.90;67.40
44607;DHT22;30315;46.072;14.474;2022-11-02T11:21:39;21.20;67.80
44607;DHT22;30315;46.072;14.474;2022-11-02T11:26:45;21.20;67.30
44607;DHT22;30315;46.072;14.474;2022-11-02T11:29:20;21.30;66.40
44607;DHT22;30315;46.072;14.474;2022-11-02T11:31:48;21.40;66.10
44607;DHT22;30315;46.072;14.474;2022-11-02T11:34:21;21.50;65.60
44607;DHT22;30315;46.072;14.474;2022-11-02T11:36:50;21.20;65.30
44607;DHT22;30315;46.072;14.474;2022-11-02T11:41:50;21.80;64.80
44607;DHT22;30315;46.072;14.474;2022-11-02T11:44:17;21.90;64.40
44607;DHT22;30315;46.072;14.474;2022-11-02T11:46:46;21.90;64.30
44607;DHT22;30315;46.072;14.474;2022-11-02T11:49:24;22.10;64.50
44607;DHT22;30315;46.072;14.474;2022-11-02T11:52:15;22.10;63.70
44607;DHT22;30315;46.072;14.474;2022-11-02T11:54:51;22.20;64.10
44607;DHT22;30315;46.072;14.474;2022-11-02T11:57:22;22.40;63.00
44607;DHT22;30315;46.072;14.474;2022-11-02T11:59:50;22.40;62.60
44607;DHT22;30315;46.072;14.474;2022-11-02T12:10:40;22.70;60.60
44607;DHT22;30315;46.072;14.474;2022-11-02T12:13:16;22.80;60.50
44607;DHT22;30315;46.072;14.474;2022-11-02T12:15:47;23.00;60.60
44607;DHT22;30315;46.072;14.474;2022-11-02T12:28:55;23.50;59.60
44607;DHT22;30315;46.072;14.474;2022-11-02T12:31:32;23.50;58.90
44607;DHT22;30315;46.072;14.474;2022-11-02T12:44:57;23.90;57.60
44607;DHT22;30315;46.072;14.474;2022-11-02T12:55:35;24.20;56.90
44607;DHT22;30315;46.072;14.474;2022-11-02T12:58:05;24.10;56.20
44607;DHT22;30315;46.072;14.474;2022-11-02T13:00:35;24.20;55.80
44607;DHT22;30315;46.072;14.474;2022-11-02T13:03:18;24.30;55.90
44607;DHT22;30315;46.072;14.474;2022-11-02T13:05:50;24.30;55.90
44607;DHT22;30315;46.072;14.474;2022-11-02T13:08:24;24.40;56.10
44607;DHT22;30315;46.072;14.474;2022-11-02T13:10:59;24.50;56.30
44607;DHT22;30315;46.072;14.474;2022-11-02T13:13:32;24.60;56.00
44607;DHT22;30315;46.072;14.474;2022-11-02T13:16:01;24.50;55.20
44607;DHT22;30315;46.072;14.474;2022-11-02T13:18:34;24.40;54.40
44607;DHT22;30315;46.072;14.474;2022-11-02T13:21:03;24.40;54.70
44607;DHT22;30315;46.072;14.474;2022-11-02T13:26:43;24.30;54.70
44607;DHT22;30315;46.072;14.474;2022-11-02T13:28:52;24.20;54.70
44607;DHT22;30315;46.072;14.474;2022-11-02T13:31:34;24.20;55.30
44607;DHT22;30315;46.072;14.474;2022-11-02T13:34:07;24.20;55.60
44607;DHT22;30315;46.072;14.474;2022-11-02T13:36:38;24.20;55.70
44607;DHT22;30315;46.072;14.474;2022-11-02T13:39:15;24.20;55.40
44607;DHT22;30315;46.072;14.474;2022-11-02T13:49:39;24.10;55.30
44607;DHT22;30315;46.072;14.474;2022-11-02T13:52:11;24.10;55.60
44607;DHT22;30315;46.072;14.474;2022-11-02T13:54:42;24.30;55.90
44607;DHT22;30315;46.072;14.474;2022-11-02T13:57:29;24.40;55.80
44607;DHT22;30315;46.072;14.474;2022-11-02T13:59:58;24.30;55.20
44607;DHT22;30315;46.072;14.474;2022-11-02T14:02:27;24.40;55.20
44607;DHT22;30315;46.072;14.474;2022-11-02T14:04:54;24.40;55.20
44607;DHT22;30315;46.072;14.474;2022-11-02T14:07:22;24.40;55.80
44607;DHT22;30315;46.072;14.474;2022-11-02T14:09:55;24.40;55.20
44607;DHT22;30315;46.072;14.474;2022-11-02T14:20:44;24.40;55.80
44607;DHT22;30315;46.072;14.474;2022-11-02T14:28:33;24.40;55.30
44607;DHT22;30315;46.072;14.474;2022-11-02T14:35:54;24.30;55.70
44607;DHT22;30315;46.072;14.474;2022-11-02T14:43:43;24.10;56.10
44607;DHT22;30315;46.072;14.474;2022-11-02T14:48:47;23.90;56.30
44607;DHT22;30315;46.072;14.474;2022-11-02T14:51:22;23.80;56.40
44607;DHT22;30315;46.072;14.474;2022-11-02T14:53:53;23.70;56.30
44607;DHT22;30315;46.072;14.474;2022-11-02T14:56:21;23.60;56.80
44607;DHT22;30315;46.072;14.474;2022-11-02T14:58:49;23.60;57.10
44607;DHT22;30315;46.072;14.474;2022-11-02T15:01:17;23.40;57.30
44607;DHT22;30315;46.072;14.474;2022-11-02T15:03:47;23.30;57.60
44607;DHT22;30315;46.072;14.474;2022-11-02T15:06:22;23.20;57.80
44607;DHT22;30315;46.072;14.474;2022-11-02T15:08:51;23.20;58.00
44607;DHT22;30315;46.072;14.474;2022-11-02T15:16:50;23.20;59.00
44607;DHT22;30315;46.072;14.474;2022-11-02T15:24:49;22.60;61.10
44607;DHT22;30315;46.072;14.474;2022-11-02T15:27:17;22.50;61.80
44607;DHT22;30315;46.072;14.474;2022-11-02T15:29:45;22.50;62.60
44607;DHT22;30315;46.072;14.474;2022-11-02T15:32:17;22.30;63.00
44607;DHT22;30315;46.072;14.474;2022-11-02T15:34:49;22.30;63.70
44607;DHT22;30315;46.072;14.474;2022-11-02T15:37:17;22.20;64.00
44607;DHT22;30315;46.072;14.474;2022-11-02T15:39:52;22.10;64.40
44607;DHT22;30315;46.072;14.474;2022-11-02T15:48:21;21.80;65.40
44607;DHT22;30315;46.072;14.474;2022-11-02T15:50:57;21.70;65.50
44607;DHT22;30315;46.072;14.474;2022-11-02T15:53:45;21.60;65.60
44607;DHT22;30315;46.072;14.474;2022-11-02T15:59:07;21.40;66.00
44607;DHT22;30315;46.072;14.474;2022-11-02T16:01:38;21.40;66.40
44607;DHT22;30315;46.072;14.474;2022-11-02T16:04:05;21.30;66.80
44607;DHT22;30315;46.072;14.474;2022-11-02T16:06:39;20.90;66.90
44607;DHT22;30315;46.072;14.474;2022-11-02T16:14:52;21.10;67.90
44607;DHT22;30315;46.072;14.474;2022-11-02T16:17:19;21.00;68.00
44607;DHT22;30315;46.072;14.474;2022-11-02T16:19:46;20.90;68.20
44607;DHT22;30315;46.072;14.474;2022-11-02T16:22:24;20.90;68.20
44607;DHT22;30315;46.072;14.474;2022-11-02T16:24:52;20.80;68.10
44607;DHT22;30315;46.072;14.474;2022-11-02T16:27:20;20.80;68.50
44607;DHT22;30315;46.072;14.474;2022-11-02T16:29:48;20.70;68.50
44607;DHT22;30315;46.072;14.474;2022-11-02T16:32:15;20.70;68.90
44607;DHT22;30315;46.072;14.474;2022-11-02T16:34:42;20.60;69.00
44607;DHT22;30315;46.072;14.474;2022-11-02T16:37:10;20.60;69.00
44607;DHT22;30315;46.072;14.474;2022-11-02T16:39:39;20.60;69.20
44607;DHT22;30315;46.072;14.474;2022-11-02T16:42:17;20.50;68.60
44607;DHT22;30315;46.072;14.474;2022-11-02T16:44:57;20.50;68.30
44607;DHT22;30315;46.072;14.474;2022-11-02T16:47:39;20.40;68.90
44607;DHT22;30315;46.072;14.474;2022-11-02T16:50:22;20.40;69.40
44607;DHT22;30315;46.072;14.474;2022-11-02T16:53:11;20.40;69.50
44607;DHT22;30315;46.072;14.474;2022-11-02T16:55:43;20.40;69.40
44607;DHT22;30315;46.072;14.474;2022-11-02T16:58:15;20.30;69.40
44607;DHT22;30315;46.072;14.474;2022-11-02T17:00:50;20.30;69.70
44607;DHT22;30315;46.072;14.474;2022-11-02T17:03:18;20.20;69.70
44607;DHT22;30315;46.072;14.474;2022-11-02T17:05:46;20.20;70.10
44607;DHT22;30315;46.072;14.474;2022-11-02T17:08:26;20.20;70.30
44607;DHT22;30315;46.072;14.474;2022-11-02T17:10:54;20.20;70.40
44607;DHT22;30315;46.072;14.474;2022-11-02T17:13:21;20.10;70.30
44607;DHT22;30315;46.072;14.474;2022-11-02T17:15:50;20.10;70.50
44607;DHT22;30315;46.072;14.474;2022-11-02T17:21:13;20.00;70.70
44607;DHT22;30315;46.072;14.474;2022-11-02T17:23:35;20.00;70.70
44607;DHT22;30315;46.072;14.474;2022-11-02T17:28:54;19.90;70.10
44607;DHT22;30315;46.072;14.474;2022-11-02T17:31:29;19.90;70.70
44607;DHT22;30315;46.072;14.474;2022-11-02T17:34:00;19.80;70.70
44607;DHT22;30315;46.072;14.474;2022-11-02T17:36:40;19.80;70.90
44607;DHT22;30315;46.072;14.474;2022-11-02T17:39:17;19.80;71.10
44607;DHT22;30315;46.072;14.474;2022-11-02T17:41:51;19.70;71.40
44607;DHT22;30315;46.072;14.474;2022-11-02T17:44:37;19.70;71.40
44607;DHT22;30315;46.072;14.474;2022-11-02T17:47:14;19.60;71.30
44607;DHT22;30315;46.072;14.474;2022-11-02T17:49:42;19.70;71.70
44607;DHT22;30315;46.072;14.474;2022-11-02T17:52:09;19.60;71.70
44607;DHT22;30315;46.072;14.474;2022-11-02T17:54:37;19.50;71.50
44607;DHT22;30315;46.072;14.474;2022-11-02T17:57:08;19.50;71.70
44607;DHT22;30315;46.072;14.474;2022-11-02T17:59:36;19.50;71.90
44607;DHT22;30315;46.072;14.474;2022-11-02T18:02:08;19.40;71.70
44607;DHT22;30315;46.072;14.474;2022-11-02T18:04:36;19.40;71.60
44607;DHT22;30315;46.072;14.474;2022-11-02T18:07:03;19.40;71.70
44607;DHT22;30315;46.072;14.474;2022-11-02T18:09:30;19.40;71.70
44607;DHT22;30315;46.072;14.474;2022-11-02T18:11:58;19.40;71.80
44607;DHT22;30315;46.072;14.474;2022-11-02T18:14:25;19.40;71.80
44607;DHT22;30315;46.072;14.474;2022-11-02T18:16:52;19.30;71.80
44607;DHT22;30315;46.072;14.474;2022-11-02T18:19:19;19.30;71.90
44607;DHT22;30315;46.072;14.474;2022-11-02T18:21:45;19.30;71.90
44607;DHT22;30315;46.072;14.474;2022-11-02T18:24:12;19.20;71.90
44607;DHT22;30315;46.072;14.474;2022-11-02T18:26:39;19.20;72.10
44607;DHT22;30315;46.072;14.474;2022-11-02T18:29:12;19.20;72.20
44607;DHT22;30315;46.072;14.474;2022-11-02T18:31:39;19.10;72.10